createdAt,value
2023-09-23T00:01:07.069Z,76.27
2023-09-23T00:02:19.597Z,76.24
2023-09-23T00:03:28.674Z,76.14
2023-09-23T00:04:36.210Z,76.33
2023-09-23T00:05:42.751Z,76.30
2023-09-23T00:06:52.053Z,76.62
2023-09-23T00:08:00.574Z,76.84
2023-09-23T00:09:09.328Z,76.89
2023-09-23T00:10:15.709Z,77.00
2023-09-23T00:11:23.388Z,77.12
2023-09-23T00:12:32.326Z,77.39
2023-09-23T00:13:38.487Z,77.41
2023-09-23T00:14:46.354Z,77.50
2023-09-23T00:15:53.845Z,77.40
2023-09-23T00:17:01.104Z,77.57
2023-09-23T00:18:08.132Z,77.52
2023-09-23T00:19:14.750Z,77.63
2023-09-23T00:20:23.221Z,77.52
2023-09-23T00:21:30.064Z,77.65
2023-09-23T00:22:39.489Z,77.56
2023-09-23T00:23:48.120Z,77.90
2023-09-23T00:24:55.962Z,77.68
2023-09-23T00:26:03.739Z,77.38
2023-09-23T00:27:11.621Z,77.41
2023-09-23T00:28:18.905Z,77.38
2023-09-23T00:29:29.354Z,77.83
2023-09-23T00:30:35.957Z,77.70
2023-09-23T00:31:45.181Z,77.73
2023-09-23T00:32:52.427Z,77.82
2023-09-23T00:33:58.943Z,78.00
2023-09-23T00:35:08.266Z,78.32
2023-09-23T00:36:12.708Z,78.64
2023-09-23T00:37:19.482Z,78.63
2023-09-23T00:38:28.722Z,78.28
2023-09-23T00:39:43.570Z,78.43
2023-09-23T00:40:48.610Z,78.15
2023-09-23T00:41:55.508Z,78.06
2023-09-23T00:43:14.046Z,78.17
2023-09-23T00:44:21.019Z,78.23
2023-09-23T00:45:30.798Z,78.23
2023-09-23T00:46:38.538Z,78.34
2023-09-23T00:47:47.325Z,78.45
2023-09-23T00:48:54.893Z,78.45
2023-09-23T00:50:05.427Z,78.50
2023-09-23T00:51:13.223Z,78.70
2023-09-23T00:52:19.450Z,78.68
2023-09-23T00:53:27.512Z,78.57
2023-09-23T00:54:36.907Z,78.72
2023-09-23T00:55:53.429Z,78.70
2023-09-23T00:57:02.309Z,78.48
2023-09-23T00:58:09.025Z,78.76
2023-09-23T00:59:19.124Z,78.96
2023-09-23T01:00:32.261Z,79.46
2023-09-23T01:01:42.172Z,79.49
2023-09-23T01:02:50.235Z,79.36
2023-09-23T01:03:56.667Z,79.06
2023-09-23T01:05:03.023Z,79.01
2023-09-23T01:06:29.861Z,78.99
2023-09-23T01:07:37.278Z,78.96
2023-09-23T01:08:47.218Z,78.88
2023-09-23T01:09:54.105Z,79.06
2023-09-23T01:11:01.540Z,78.71
2023-09-23T01:12:10.647Z,78.63
2023-09-23T01:13:23.147Z,78.23
2023-09-23T01:14:30.890Z,78.33
2023-09-23T01:15:44.401Z,78.37
2023-09-23T01:16:55.474Z,78.38
2023-09-23T01:18:02.962Z,78.33
2023-09-23T01:19:10.995Z,78.39
2023-09-23T01:20:17.747Z,78.39
2023-09-23T01:21:24.997Z,78.31
2023-09-23T01:22:31.933Z,78.09
2023-09-23T01:23:39.564Z,78.05
2023-09-23T01:24:47.492Z,78.22
2023-09-23T01:25:53.889Z,78.20
2023-09-23T01:27:01.786Z,78.40
2023-09-23T01:28:14.867Z,78.23
2023-09-23T01:29:23.873Z,78.17
2023-09-23T01:30:30.435Z,78.43
2023-09-23T01:31:37.193Z,78.56
2023-09-23T01:32:51.718Z,78.31
2023-09-23T01:33:59.642Z,78.32
2023-09-23T01:35:07.876Z,78.31
2023-09-23T01:36:15.281Z,78.13
2023-09-23T01:37:22.687Z,78.10
2023-09-23T01:38:29.324Z,78.06
2023-09-23T01:39:35.614Z,77.83
2023-09-23T01:40:42.563Z,77.94
2023-09-23T01:41:49.912Z,78.11
2023-09-23T01:42:59.154Z,77.98
2023-09-23T01:44:06.171Z,78.04
2023-09-23T01:45:14.504Z,77.98
2023-09-23T01:46:21.489Z,77.60
2023-09-23T01:47:28.079Z,77.63
2023-09-23T01:48:34.777Z,77.78
2023-09-23T01:49:41.409Z,77.78
2023-09-23T01:50:50.703Z,77.90
2023-09-23T01:51:57.309Z,77.99
2023-09-23T01:53:05.861Z,77.90
2023-09-23T01:54:17.468Z,78.13
2023-09-23T01:55:24.097Z,78.06
2023-09-23T01:56:33.354Z,77.88
2023-09-23T01:57:40.869Z,77.92
2023-09-23T01:58:50.799Z,77.99
2023-09-23T01:59:58.089Z,78.07
2023-09-23T02:01:06.091Z,77.96
2023-09-23T02:02:13.801Z,78.05
2023-09-23T02:03:21.749Z,78.16
2023-09-23T02:04:28.613Z,78.03
2023-09-23T02:05:34.939Z,77.92
2023-09-23T02:06:44.391Z,77.79
2023-09-23T02:07:52.238Z,77.91
2023-09-23T02:08:59.236Z,77.88
2023-09-23T02:10:07.021Z,78.08
2023-09-23T02:11:13.127Z,78.06
2023-09-23T02:12:20.115Z,78.02
2023-09-23T02:13:26.167Z,78.16
2023-09-23T02:14:33.690Z,78.05
2023-09-23T02:15:40.366Z,77.81
2023-09-23T02:16:48.903Z,77.67
2023-09-23T02:17:54.945Z,77.90
2023-09-23T02:19:02.458Z,77.87
2023-09-23T02:20:13.244Z,77.85
2023-09-23T02:21:20.805Z,77.91
2023-09-23T02:22:28.286Z,77.92
2023-09-23T02:23:35.195Z,78.01
2023-09-23T02:24:42.047Z,78.03
2023-09-23T02:25:51.315Z,78.15
2023-09-23T02:26:57.823Z,78.12
2023-09-23T02:28:04.609Z,78.19
2023-09-23T02:29:11.144Z,78.26
2023-09-23T02:30:17.689Z,78.58
2023-09-23T02:31:24.185Z,78.63
2023-09-23T02:32:30.882Z,78.75
2023-09-23T02:33:37.296Z,78.44
2023-09-23T02:34:47.052Z,78.52
2023-09-23T02:35:54.055Z,78.47
2023-09-23T02:37:00.567Z,78.31
2023-09-23T02:38:08.812Z,78.28
2023-09-23T02:39:21.156Z,78.39
2023-09-23T02:40:29.246Z,78.68
2023-09-23T02:41:35.768Z,78.70
2023-09-23T02:42:45.115Z,78.65
2023-09-23T02:43:54.228Z,78.72
2023-09-23T02:45:04.509Z,78.71
2023-09-23T02:46:11.345Z,78.40
2023-09-23T02:47:20.329Z,78.35
2023-09-23T02:48:27.477Z,78.19
2023-09-23T02:49:36.143Z,78.37
2023-09-23T02:50:42.530Z,78.35
2023-09-23T02:51:49.956Z,78.39
2023-09-23T02:52:56.730Z,78.35
2023-09-23T02:54:02.913Z,78.41
2023-09-23T02:55:14.946Z,78.30
2023-09-23T02:56:21.222Z,78.54
2023-09-23T02:57:29.297Z,78.79
2023-09-23T02:58:36.053Z,78.93
2023-09-23T02:59:47.997Z,78.78
2023-09-23T03:00:59.404Z,78.98
2023-09-23T03:02:09.339Z,79.15
2023-09-23T03:03:20.891Z,79.25
2023-09-23T03:04:29.599Z,79.00
2023-09-23T03:05:40.133Z,78.96
2023-09-23T03:06:50.991Z,78.80
2023-09-23T03:08:01.891Z,78.63
2023-09-23T03:09:11.684Z,78.57
2023-09-23T03:10:31.394Z,78.55
2023-09-23T03:11:49.121Z,78.78
2023-09-23T03:13:03.469Z,78.62
2023-09-23T03:14:14.109Z,78.48
2023-09-23T03:15:24.227Z,78.65
2023-09-23T03:16:31.061Z,78.97
2023-09-23T03:17:38.678Z,78.99
2023-09-23T03:19:08.265Z,78.68
2023-09-23T03:20:16.236Z,78.52
2023-09-23T03:21:22.732Z,78.48
2023-09-23T03:22:32.713Z,78.58
2023-09-23T03:23:42.169Z,78.49
2023-09-23T03:24:49.967Z,78.43
2023-09-23T03:25:58.015Z,78.57
2023-09-23T03:27:04.689Z,78.66
2023-09-23T03:28:11.608Z,78.67
2023-09-23T03:29:19.930Z,78.49
2023-09-23T03:30:26.736Z,78.54
2023-09-23T03:31:33.888Z,78.51
2023-09-23T03:32:41.442Z,78.42
2023-09-23T03:33:49.430Z,78.23
2023-09-23T03:34:57.582Z,78.34
2023-09-23T03:36:07.873Z,78.45
2023-09-23T03:37:14.989Z,78.27
2023-09-23T03:38:21.837Z,78.47
2023-09-23T03:39:29.927Z,78.33
2023-09-23T03:40:36.867Z,78.28
2023-09-23T03:41:50.703Z,78.27
2023-09-23T03:42:59.123Z,78.06
2023-09-23T03:44:05.912Z,77.96
2023-09-23T03:45:13.087Z,78.28
2023-09-23T03:46:19.150Z,78.05
2023-09-23T03:47:26.625Z,77.92
2023-09-23T03:48:34.284Z,78.03
2023-09-23T03:49:40.629Z,78.25
2023-09-23T03:50:49.410Z,78.05
2023-09-23T03:51:55.443Z,78.15
2023-09-23T03:53:01.912Z,78.46
2023-09-23T03:54:09.644Z,78.54
2023-09-23T03:55:16.289Z,78.60
2023-09-23T03:56:26.109Z,78.41
2023-09-23T03:57:32.896Z,78.66
2023-09-23T03:58:40.508Z,78.71
2023-09-23T03:59:48.478Z,79.03
2023-09-23T04:00:57.737Z,79.36
2023-09-23T04:02:03.849Z,79.17
2023-09-23T04:03:10.467Z,79.15
2023-09-23T04:04:18.561Z,78.99
2023-09-23T04:05:26.503Z,79.34
2023-09-23T04:06:34.826Z,79.47
2023-09-23T04:07:41.479Z,79.30
2023-09-23T04:08:48.954Z,79.35
2023-09-23T04:09:55.200Z,79.10
2023-09-23T04:11:05.832Z,79.23
2023-09-23T04:12:12.673Z,79.08
2023-09-23T04:13:21.140Z,79.17
2023-09-23T04:14:29.459Z,79.05
2023-09-23T04:15:36.225Z,79.17
2023-09-23T04:16:42.405Z,79.26
2023-09-23T04:17:49.617Z,79.12
2023-09-23T04:18:55.811Z,79.11
2023-09-23T04:20:05.716Z,79.08
2023-09-23T04:21:12.886Z,78.94
2023-09-23T04:22:19.802Z,79.15
2023-09-23T04:23:26.252Z,79.16
2023-09-23T04:24:32.794Z,78.90
2023-09-23T04:25:39.428Z,78.84
2023-09-23T04:26:45.492Z,78.61
2023-09-23T04:27:53.378Z,78.76
2023-09-23T04:28:59.365Z,78.57
2023-09-23T04:30:13.023Z,78.54
2023-09-23T04:31:19.875Z,78.31
2023-09-23T04:32:26.625Z,78.17
2023-09-23T04:33:32.974Z,78.08
2023-09-23T04:34:39.697Z,77.95
2023-09-23T04:35:45.886Z,77.95
2023-09-23T04:36:52.278Z,77.69
2023-09-23T04:38:00.557Z,77.60
2023-09-23T04:39:08.040Z,77.49
2023-09-23T04:40:16.646Z,77.59
2023-09-23T04:41:23.198Z,77.48
2023-09-23T04:42:30.025Z,77.47
2023-09-23T04:43:37.128Z,77.17
2023-09-23T04:44:43.651Z,76.98
2023-09-23T04:45:50.167Z,76.98
2023-09-23T04:46:58.174Z,76.72
2023-09-23T04:48:08.151Z,76.71
2023-09-23T04:49:12.789Z,76.81
2023-09-23T04:50:19.803Z,76.71
2023-09-23T04:51:28.500Z,76.80
2023-09-23T04:52:36.695Z,76.83
2023-09-23T04:53:42.720Z,76.61
2023-09-23T04:54:54.512Z,76.15
2023-09-23T04:56:07.906Z,76.37
2023-09-23T04:57:15.697Z,76.17
2023-09-23T04:58:22.781Z,76.13
2023-09-23T04:59:29.016Z,76.14
2023-09-23T05:00:38.258Z,76.13
2023-09-23T05:01:47.292Z,76.08
2023-09-23T05:02:54.798Z,76.07
2023-09-23T05:04:01.222Z,76.01
2023-09-23T05:05:12.391Z,75.94
2023-09-23T05:06:18.723Z,75.88
2023-09-23T05:07:26.837Z,75.84
2023-09-23T05:08:33.958Z,75.84
2023-09-23T05:09:40.764Z,75.66
2023-09-23T05:10:47.150Z,75.57
2023-09-23T05:11:53.749Z,75.44
2023-09-23T05:13:00.027Z,75.28
2023-09-23T05:14:06.614Z,75.23
2023-09-23T05:15:16.484Z,75.07
2023-09-23T05:16:24.396Z,74.80
2023-09-23T05:17:32.641Z,74.66
2023-09-23T05:18:39.965Z,74.55
2023-09-23T05:19:48.065Z,74.49
2023-09-23T05:20:54.257Z,74.52
2023-09-23T05:22:01.344Z,74.38
2023-09-23T05:23:08.354Z,74.23
2023-09-23T05:24:14.987Z,74.16
2023-09-23T05:25:26.253Z,74.05
2023-09-23T05:26:34.943Z,73.97
2023-09-23T05:27:43.676Z,74.02
2023-09-23T05:28:50.886Z,73.93
2023-09-23T05:29:57.585Z,73.91
2023-09-23T05:31:06.016Z,73.84
2023-09-23T05:32:13.551Z,73.81
2023-09-23T05:33:20.885Z,73.87
2023-09-23T05:34:28.761Z,73.92
2023-09-23T05:35:36.775Z,73.92
2023-09-23T05:36:43.307Z,73.87
2023-09-23T05:37:51.337Z,73.80
2023-09-23T05:38:58.548Z,73.62
2023-09-23T05:40:19.665Z,73.67
2023-09-23T05:41:26.561Z,73.71
2023-09-23T05:42:33.702Z,73.53
2023-09-23T05:43:39.456Z,73.60
2023-09-23T05:44:47.861Z,73.46
2023-09-23T05:45:54.517Z,73.52
2023-09-23T05:47:03.308Z,73.57
2023-09-23T05:48:12.496Z,73.39
2023-09-23T05:49:20.549Z,73.46
2023-09-23T05:50:26.651Z,73.48
2023-09-23T05:51:36.616Z,73.39
2023-09-23T05:52:47.017Z,73.37
2023-09-23T05:53:54.165Z,73.43
2023-09-23T05:55:00.424Z,73.24
2023-09-23T05:56:07.122Z,73.17
2023-09-23T05:57:13.792Z,73.12
2023-09-23T05:58:20.178Z,73.01
2023-09-23T05:59:27.821Z,73.01
2023-09-23T06:00:34.959Z,72.79
2023-09-23T06:01:42.541Z,72.58
2023-09-23T06:02:49.425Z,72.40
2023-09-23T06:03:57.722Z,72.35
2023-09-23T06:05:04.855Z,72.30
2023-09-23T06:06:12.520Z,72.04
2023-09-23T06:07:19.486Z,71.78
2023-09-23T06:08:25.812Z,71.66
2023-09-23T06:09:32.794Z,71.42
2023-09-23T06:10:40.452Z,71.11
2023-09-23T06:11:46.807Z,71.09
2023-09-23T06:12:53.119Z,70.83
2023-09-23T06:13:59.497Z,70.94
2023-09-23T06:15:12.071Z,70.75
2023-09-23T06:16:18.698Z,70.58
2023-09-23T06:17:25.462Z,70.38
2023-09-23T06:18:34.935Z,70.13
2023-09-23T06:19:42.452Z,69.96
2023-09-23T06:20:49.439Z,69.90
2023-09-23T06:21:57.044Z,69.52
2023-09-23T06:23:04.125Z,69.42
2023-09-23T06:24:11.948Z,69.20
2023-09-23T06:25:19.189Z,68.85
2023-09-23T06:26:26.677Z,68.60
2023-09-23T06:27:33.739Z,68.34
2023-09-23T06:28:40.297Z,68.04
2023-09-23T06:29:47.662Z,67.70
2023-09-23T06:30:54.661Z,67.85
2023-09-23T06:32:00.944Z,67.78
2023-09-23T06:33:08.369Z,67.51
2023-09-23T06:34:15.121Z,66.99
2023-09-23T06:35:21.772Z,66.79
2023-09-23T06:36:28.563Z,66.48
2023-09-23T06:37:34.818Z,66.41
2023-09-23T06:38:41.792Z,65.99
2023-09-23T06:39:49.371Z,66.07
2023-09-23T06:41:00.365Z,65.90
2023-09-23T06:42:07.178Z,65.89
2023-09-23T06:43:14.421Z,65.52
2023-09-23T06:44:20.467Z,64.86
2023-09-23T06:45:26.856Z,64.72
2023-09-23T06:46:33.298Z,64.08
2023-09-23T06:47:42.102Z,64.30
2023-09-23T06:48:49.563Z,64.48
2023-09-23T06:49:56.145Z,63.74
2023-09-23T06:51:05.164Z,63.92
2023-09-23T06:52:13.414Z,63.92
2023-09-23T06:53:19.210Z,64.12
2023-09-23T06:54:26.477Z,63.95
2023-09-23T06:55:32.590Z,63.80
2023-09-23T06:56:39.576Z,63.99
2023-09-23T06:57:45.735Z,63.97
2023-09-23T06:58:52.180Z,63.70
2023-09-23T06:59:58.564Z,63.63
2023-09-23T07:01:05.268Z,63.09
2023-09-23T07:02:11.478Z,63.22
2023-09-23T07:03:17.893Z,62.93
2023-09-23T07:04:24.663Z,62.93
2023-09-23T07:05:31.269Z,62.88
2023-09-23T07:06:38.068Z,62.63
2023-09-23T07:07:44.896Z,62.95
2023-09-23T07:08:50.994Z,62.82
2023-09-23T07:09:57.228Z,62.65
2023-09-23T07:11:04.155Z,62.87
2023-09-23T07:12:13.873Z,62.69
2023-09-23T07:13:22.665Z,62.04
2023-09-23T07:14:30.705Z,61.72
2023-09-23T07:15:42.251Z,61.45
2023-09-23T07:16:48.935Z,61.30
2023-09-23T07:17:56.283Z,61.49
2023-09-23T07:19:02.497Z,61.25
2023-09-23T07:20:13.134Z,61.32
2023-09-23T07:21:19.458Z,61.11
2023-09-23T07:22:25.990Z,60.91
2023-09-23T07:23:32.517Z,60.82
2023-09-23T07:24:40.225Z,61.03
2023-09-23T07:25:47.097Z,61.11
2023-09-23T07:26:57.067Z,60.58
2023-09-23T07:28:05.161Z,60.39
2023-09-23T07:29:10.962Z,59.87
2023-09-23T07:30:18.906Z,59.42
2023-09-23T07:31:25.122Z,59.43
2023-09-23T07:32:31.737Z,59.21
2023-09-23T07:33:38.266Z,59.34
2023-09-23T07:34:45.615Z,59.68
2023-09-23T07:35:51.632Z,59.72
2023-09-23T07:36:57.978Z,58.76
2023-09-23T07:38:05.435Z,58.59
2023-09-23T07:39:12.385Z,58.47
2023-09-23T07:40:20.490Z,58.28
2023-09-23T07:41:28.213Z,58.13
2023-09-23T07:42:36.285Z,57.70
2023-09-23T07:43:44.960Z,56.70
2023-09-23T07:44:51.330Z,56.60
2023-09-23T07:45:58.011Z,57.00
2023-09-23T07:47:04.021Z,56.54
2023-09-23T07:48:11.568Z,55.89
2023-09-23T07:49:18.372Z,55.38
2023-09-23T07:50:25.381Z,55.82
2023-09-23T07:51:31.815Z,55.99
2023-09-23T07:52:38.298Z,56.14
2023-09-23T07:53:44.792Z,55.86
2023-09-23T07:54:52.337Z,55.64
2023-09-23T07:55:58.972Z,55.71
2023-09-23T07:57:05.298Z,55.46
2023-09-23T07:58:12.540Z,55.30
2023-09-23T07:59:21.523Z,54.83
2023-09-23T08:00:28.558Z,54.89
2023-09-23T08:01:35.150Z,55.08
2023-09-23T08:02:41.476Z,54.29
2023-09-23T08:03:48.648Z,54.09
2023-09-23T08:04:55.741Z,53.96
2023-09-23T08:06:04.004Z,53.76
2023-09-23T08:07:12.618Z,53.97
2023-09-23T08:08:19.067Z,54.01
2023-09-23T08:09:25.277Z,54.02
2023-09-23T08:10:32.969Z,53.71
2023-09-23T08:11:39.588Z,53.48
2023-09-23T08:12:45.584Z,53.01
2023-09-23T08:13:52.445Z,53.03
2023-09-23T08:14:58.569Z,52.77
2023-09-23T08:16:05.809Z,52.43
2023-09-23T08:17:12.340Z,51.69
2023-09-23T08:18:18.971Z,51.71
2023-09-23T08:19:25.837Z,51.17
2023-09-23T08:20:31.931Z,51.64
2023-09-23T08:21:37.946Z,51.70
2023-09-23T08:22:44.104Z,52.11
2023-09-23T08:23:49.887Z,52.43
2023-09-23T08:24:56.497Z,51.88
2023-09-23T08:26:03.258Z,51.45
2023-09-23T08:27:10.236Z,50.61
2023-09-23T08:28:17.043Z,50.25
2023-09-23T08:29:25.946Z,50.74
2023-09-23T08:30:32.642Z,50.78
2023-09-23T08:31:40.730Z,50.39
2023-09-23T08:32:47.132Z,50.03
2023-09-23T08:33:54.139Z,50.15
2023-09-23T08:35:00.503Z,49.95
2023-09-23T08:36:07.776Z,49.84
2023-09-23T08:37:14.417Z,50.14
2023-09-23T08:38:22.085Z,50.21
2023-09-23T08:39:28.279Z,49.60
2023-09-23T08:40:39.356Z,48.72
2023-09-23T08:41:54.875Z,48.52
2023-09-23T08:43:07.060Z,48.63
2023-09-23T08:44:17.455Z,48.60
2023-09-23T08:45:29.832Z,48.39
2023-09-23T08:46:37.398Z,48.08
2023-09-23T08:47:45.060Z,48.75
2023-09-23T08:48:51.464Z,48.93
2023-09-23T08:49:57.934Z,48.54
2023-09-23T08:51:07.559Z,48.09
2023-09-23T08:52:15.811Z,48.23
2023-09-23T08:53:24.072Z,47.87
2023-09-23T08:54:33.150Z,47.82
2023-09-23T08:55:42.008Z,47.78
2023-09-23T08:56:48.467Z,47.70
2023-09-23T08:58:02.938Z,48.12
2023-09-23T08:59:12.791Z,48.50
2023-09-23T09:00:21.363Z,48.14
2023-09-23T09:01:27.241Z,47.20
2023-09-23T09:02:33.626Z,46.98
2023-09-23T09:03:40.211Z,46.49
2023-09-23T09:04:47.120Z,46.19
2023-09-23T09:05:54.050Z,46.45
2023-09-23T09:07:00.770Z,46.83
2023-09-23T09:08:08.806Z,47.05
2023-09-23T09:09:15.420Z,46.35
2023-09-23T09:10:27.253Z,46.00
2023-09-23T09:11:33.891Z,45.97
2023-09-23T09:12:40.502Z,45.70
2023-09-23T09:13:46.620Z,46.07
2023-09-23T09:14:53.207Z,45.59
2023-09-23T09:15:59.697Z,45.53
2023-09-23T09:17:14.035Z,44.95
2023-09-23T09:18:21.625Z,45.11
2023-09-23T09:19:29.664Z,44.80
2023-09-23T09:20:38.576Z,44.89
2023-09-23T09:21:46.118Z,44.89
2023-09-23T09:22:53.747Z,44.59
2023-09-23T09:24:01.688Z,44.75
2023-09-23T09:25:13.117Z,44.35
2023-09-23T09:26:20.393Z,44.40
2023-09-23T09:27:26.803Z,44.00
2023-09-23T09:28:33.928Z,44.74
2023-09-23T09:29:42.049Z,44.78
2023-09-23T09:30:55.452Z,45.19
2023-09-23T09:32:03.900Z,43.93
2023-09-23T09:33:12.356Z,43.15
2023-09-23T09:34:24.999Z,42.86
2023-09-23T09:35:32.936Z,43.74
2023-09-23T09:36:40.706Z,43.83
2023-09-23T09:37:55.414Z,43.07
2023-09-23T09:39:10.080Z,43.38
2023-09-23T09:40:22.207Z,43.48
2023-09-23T09:41:36.813Z,43.22
2023-09-23T09:42:49.391Z,43.07
2023-09-23T09:43:58.515Z,42.56
2023-09-23T09:45:09.337Z,40.89
2023-09-23T09:46:22.321Z,41.52
2023-09-23T09:47:29.475Z,41.93
2023-09-23T09:48:39.264Z,41.40
2023-09-23T09:49:48.020Z,41.22
2023-09-23T09:50:56.978Z,41.37
2023-09-23T09:52:04.830Z,40.70
2023-09-23T09:53:11.723Z,41.27
2023-09-23T09:54:21.608Z,40.78
2023-09-23T09:55:28.490Z,40.81
2023-09-23T09:56:35.625Z,40.52
2023-09-23T09:57:42.692Z,40.14
2023-09-23T09:58:51.616Z,40.05
2023-09-23T10:00:22.387Z,39.66
2023-09-23T10:01:29.871Z,40.36
2023-09-23T10:02:38.157Z,39.68
2023-09-23T10:03:47.053Z,39.64
2023-09-23T10:04:55.217Z,39.57
2023-09-23T10:06:03.555Z,38.69
2023-09-23T10:07:13.363Z,38.80
2023-09-23T10:08:26.951Z,38.41
2023-09-23T10:09:35.697Z,38.71
2023-09-23T10:10:49.386Z,38.71
2023-09-23T10:11:59.915Z,38.83
2023-09-23T10:13:15.735Z,39.06
2023-09-23T10:14:22.573Z,38.43
2023-09-23T10:15:30.628Z,38.23
2023-09-23T10:16:38.640Z,37.38
2023-09-23T10:17:44.965Z,37.83
2023-09-23T10:19:00.580Z,38.10
2023-09-23T10:20:22.690Z,37.51
2023-09-23T10:21:30.181Z,37.19
2023-09-23T10:22:36.506Z,36.35
2023-09-23T10:23:47.313Z,36.70
2023-09-23T10:25:04.709Z,36.82
2023-09-23T10:26:20.613Z,36.64
2023-09-23T10:27:27.651Z,36.77
2023-09-23T10:28:35.003Z,37.06
2023-09-23T10:29:49.324Z,37.30
2023-09-23T10:31:08.167Z,37.40
2023-09-23T10:32:16.322Z,37.14
2023-09-23T10:33:22.782Z,37.25
2023-09-23T10:34:36.832Z,36.92
2023-09-23T10:35:51.330Z,36.93
2023-09-23T10:36:57.494Z,37.01
2023-09-23T10:38:07.186Z,36.99
2023-09-23T10:39:19.315Z,36.78
2023-09-23T10:40:26.052Z,36.34
2023-09-23T10:41:37.360Z,36.67
2023-09-23T10:42:46.893Z,36.73
2023-09-23T10:43:57.779Z,36.72
2023-09-23T10:45:06.774Z,36.49
2023-09-23T10:46:12.822Z,36.05
2023-09-23T10:47:19.191Z,35.76
2023-09-23T10:48:26.438Z,35.47
2023-09-23T10:49:32.817Z,35.25
2023-09-23T10:50:42.244Z,35.71
2023-09-23T10:51:50.109Z,35.85
2023-09-23T10:52:56.645Z,35.79
2023-09-23T10:54:04.709Z,35.74
2023-09-23T10:55:13.175Z,35.75
2023-09-23T10:56:26.377Z,35.60
2023-09-23T10:57:34.479Z,35.06
2023-09-23T10:58:40.916Z,35.33
2023-09-23T10:59:47.502Z,35.11
2023-09-23T11:00:54.117Z,34.99
2023-09-23T11:02:00.905Z,35.22
2023-09-23T11:03:12.903Z,35.64
2023-09-23T11:04:22.032Z,35.31
2023-09-23T11:05:29.821Z,35.45
2023-09-23T11:06:36.827Z,35.32
2023-09-23T11:07:45.464Z,34.63
2023-09-23T11:08:52.214Z,34.92
2023-09-23T11:09:59.365Z,35.21
2023-09-23T11:11:10.845Z,35.40
2023-09-23T11:12:18.331Z,35.37
2023-09-23T11:13:26.353Z,35.25
2023-09-23T11:14:33.242Z,35.34
2023-09-23T11:15:41.823Z,35.24
2023-09-23T11:16:50.001Z,35.42
2023-09-23T11:17:58.653Z,35.38
2023-09-23T11:19:10.189Z,34.91
2023-09-23T11:20:17.418Z,35.00
2023-09-23T11:21:24.331Z,34.60
2023-09-23T11:22:32.033Z,34.48
2023-09-23T11:23:40.663Z,34.65
2023-09-23T11:24:48.106Z,34.48
2023-09-23T11:25:55.422Z,34.57
2023-09-23T11:27:08.643Z,34.43
2023-09-23T11:28:23.516Z,34.42
2023-09-23T11:29:30.960Z,34.72
2023-09-23T11:30:37.901Z,34.23
2023-09-23T11:31:44.359Z,34.24
2023-09-23T11:32:56.027Z,34.06
2023-09-23T11:34:02.867Z,34.55
2023-09-23T11:35:10.826Z,33.86
2023-09-23T11:36:17.357Z,33.96
2023-09-23T11:37:24.654Z,34.07
2023-09-23T11:38:31.462Z,34.12
2023-09-23T11:39:38.757Z,33.87
2023-09-23T11:40:45.174Z,34.11
2023-09-23T11:41:58.769Z,33.84
2023-09-23T11:43:07.189Z,33.89
2023-09-23T11:44:13.552Z,34.09
2023-09-23T11:45:21.541Z,34.16
2023-09-23T11:46:28.376Z,33.96
2023-09-23T11:47:35.172Z,34.12
2023-09-23T11:48:43.366Z,34.48
2023-09-23T11:49:49.928Z,34.26
2023-09-23T11:50:56.263Z,34.73
2023-09-23T11:52:02.947Z,34.24
2023-09-23T11:53:12.417Z,34.00
2023-09-23T11:54:18.846Z,33.87
2023-09-23T11:55:27.770Z,33.68
2023-09-23T11:56:36.807Z,33.56
2023-09-23T11:57:44.139Z,32.91
2023-09-23T11:59:05.846Z,33.24
2023-09-23T12:00:17.838Z,33.17
2023-09-23T12:01:24.316Z,33.12
2023-09-23T12:02:31.284Z,33.10
2023-09-23T12:03:38.417Z,33.23
2023-09-23T12:04:46.311Z,33.72
2023-09-23T12:05:54.938Z,33.52
2023-09-23T12:07:02.489Z,33.67
2023-09-23T12:08:11.772Z,33.27
2023-09-23T12:09:19.041Z,33.13
2023-09-23T12:10:26.338Z,33.37
2023-09-23T12:11:32.687Z,33.42
2023-09-23T12:12:40.560Z,33.44
2023-09-23T12:13:48.066Z,33.33
2023-09-23T12:14:55.443Z,33.67
2023-09-23T12:16:02.006Z,33.51
2023-09-23T12:17:08.424Z,33.72
2023-09-23T12:18:14.996Z,33.70
2023-09-23T12:19:22.832Z,33.70
2023-09-23T12:20:30.387Z,33.69
2023-09-23T12:21:36.562Z,33.99
2023-09-23T12:22:43.363Z,33.97
2023-09-23T12:23:49.989Z,34.00
2023-09-23T12:24:59.785Z,33.74
2023-09-23T12:26:06.261Z,33.78
2023-09-23T12:27:13.480Z,33.65
2023-09-23T12:28:20.493Z,33.31
2023-09-23T12:29:28.148Z,33.31
2023-09-23T12:30:35.182Z,33.53
2023-09-23T12:31:40.953Z,33.10
2023-09-23T12:32:47.381Z,33.07
2023-09-23T12:33:54.951Z,33.09
2023-09-23T12:35:01.240Z,32.83
2023-09-23T12:36:08.985Z,32.59
2023-09-23T12:37:15.446Z,32.77
2023-09-23T12:38:22.869Z,32.89
2023-09-23T12:39:29.773Z,32.67
2023-09-23T12:40:36.911Z,32.70
2023-09-23T12:41:43.143Z,32.44
2023-09-23T12:42:50.051Z,32.27
2023-09-23T12:43:56.213Z,32.24
2023-09-23T12:45:06.105Z,32.17
2023-09-23T12:46:13.753Z,32.00
2023-09-23T12:47:20.595Z,32.33
2023-09-23T12:48:27.716Z,32.24
2023-09-23T12:49:34.378Z,32.19
2023-09-23T12:50:40.995Z,32.19
2023-09-23T12:51:48.484Z,32.21
2023-09-23T12:52:55.771Z,32.10
2023-09-23T12:54:02.891Z,32.17
2023-09-23T12:55:10.598Z,32.05
2023-09-23T12:56:18.786Z,32.05
2023-09-23T12:57:27.395Z,32.10
2023-09-23T12:58:33.952Z,32.19
2023-09-23T12:59:40.811Z,32.11
2023-09-23T13:00:48.181Z,32.05
2023-09-23T13:01:54.317Z,32.22
2023-09-23T13:03:00.507Z,32.21
2023-09-23T13:04:07.352Z,32.13
2023-09-23T13:05:16.020Z,32.33
2023-09-23T13:06:22.720Z,32.47
2023-09-23T13:07:29.373Z,31.78
2023-09-23T13:08:35.651Z,32.06
2023-09-23T13:09:42.520Z,32.22
2023-09-23T13:10:49.172Z,32.57
2023-09-23T13:11:55.340Z,32.77
2023-09-23T13:13:01.920Z,32.54
2023-09-23T13:14:09.980Z,32.38
2023-09-23T13:15:17.742Z,32.26
2023-09-23T13:16:23.929Z,32.22
2023-09-23T13:17:30.618Z,32.24
2023-09-23T13:18:38.995Z,32.30
2023-09-23T13:19:46.857Z,31.98
2023-09-23T13:20:53.025Z,32.03
2023-09-23T13:21:59.737Z,31.89
2023-09-23T13:23:08.172Z,31.53
2023-09-23T13:24:14.878Z,31.56
2023-09-23T13:25:22.030Z,31.60
2023-09-23T13:26:31.055Z,31.91
2023-09-23T13:27:37.793Z,31.95
2023-09-23T13:28:44.621Z,31.97
2023-09-23T13:29:50.655Z,31.77
2023-09-23T13:30:58.397Z,31.20
2023-09-23T13:32:05.500Z,31.28
2023-09-23T13:33:12.098Z,31.45
2023-09-23T13:34:19.064Z,31.47
2023-09-23T13:35:26.109Z,31.69
2023-09-23T13:36:33.995Z,32.03
2023-09-23T13:37:42.182Z,31.98
2023-09-23T13:38:49.003Z,31.77
2023-09-23T13:39:59.419Z,31.92
2023-09-23T13:41:06.552Z,31.67
2023-09-23T13:42:14.374Z,31.83
2023-09-23T13:43:21.410Z,31.87
2023-09-23T13:44:27.607Z,31.80
2023-09-23T13:45:34.659Z,31.98
2023-09-23T13:46:41.144Z,32.08
2023-09-23T13:47:48.289Z,31.89
2023-09-23T13:48:54.627Z,31.66
2023-09-23T13:50:01.883Z,31.66
2023-09-23T13:51:09.804Z,31.91
2023-09-23T13:52:17.217Z,32.07
2023-09-23T13:53:23.921Z,32.00
2023-09-23T13:54:30.455Z,32.42
2023-09-23T13:55:39.365Z,32.42
2023-09-23T13:56:45.901Z,32.44
2023-09-23T13:57:53.668Z,32.42
2023-09-23T13:59:00.652Z,31.97
2023-09-23T14:00:11.153Z,32.19
2023-09-23T14:01:18.046Z,32.39
2023-09-23T14:02:25.388Z,32.27
2023-09-23T14:03:33.024Z,31.92
2023-09-23T14:04:39.461Z,32.01
2023-09-23T14:05:47.045Z,31.76
2023-09-23T14:06:53.767Z,31.76
2023-09-23T14:07:59.827Z,31.90
2023-09-23T14:09:07.709Z,32.19
2023-09-23T14:10:21.402Z,32.32
2023-09-23T14:11:34.955Z,32.36
2023-09-23T14:12:41.343Z,32.59
2023-09-23T14:13:48.438Z,32.30
2023-09-23T14:14:56.733Z,31.77
2023-09-23T14:16:03.382Z,31.66
2023-09-23T14:17:10.594Z,31.30
2023-09-23T14:18:16.981Z,30.49
2023-09-23T14:19:25.288Z,30.34
2023-09-23T14:20:31.795Z,30.00
2023-09-23T14:21:38.683Z,29.92
2023-09-23T14:22:47.493Z,29.62
2023-09-23T14:23:54.150Z,29.35
2023-09-23T14:25:05.125Z,29.49
2023-09-23T14:26:11.667Z,28.94
2023-09-23T14:27:18.255Z,28.78
2023-09-23T14:28:24.896Z,27.94
2023-09-23T14:29:31.726Z,27.86
2023-09-23T14:30:37.743Z,28.13
2023-09-23T14:31:44.205Z,28.07
2023-09-23T14:32:51.059Z,28.02
2023-09-23T14:34:02.200Z,27.59
2023-09-23T14:35:09.999Z,27.41
2023-09-23T14:36:16.652Z,27.17
2023-09-23T14:37:22.985Z,27.37